Huson, Montana
Current Conditions -  °F | °C
As of 6:53 AM on Wednesday 28 Jan 2015 (Local Time) from KMSO Reporting Station
Broken Clouds Broken Clouds  
Wind Chill: 27°   Ceiling: 5500
Heat Index: 27°   Visibility: 7mi
Dew Point: 25°   Wind: 0mph
Humidity: 92%   Direction: NA
Pressure: 30.23"   Gusts: NA
Location:  47.03°N, 114.33°W
Report Text: KMSO 281353Z 00000KT 7SM BKN055 M03/M04 A3023 RMK AO2 SLP270 T10281039
Loading
Personal Weather Stations






























Interactive Weather Map New forecast layout! Learn more

10-Day Weather Forecast

Advertisements
Track Severe Weather on mobile